sensor_id;sensor_type;location;lat;lon;timestamp;P1;durP1;ratioP1;P2;durP2;ratioP2
59052;SDS011;44843;44.728;10.396;2022-08-21T09:31:34;8.02;;;3.80;;
59052;SDS011;44843;44.728;10.396;2022-08-21T09:36:33;12.18;;;3.55;;
59052;SDS011;44843;44.728;10.396;2022-08-21T09:39:06;12.52;;;3.10;;
59052;SDS011;44843;44.728;10.396;2022-08-21T09:41:33;6.40;;;2.88;;
59052;SDS011;44843;44.728;10.396;2022-08-21T09:44:01;8.45;;;3.05;;
59052;SDS011;44843;44.728;10.396;2022-08-21T09:46:27;11.02;;;3.40;;
59052;SDS011;44843;44.728;10.396;2022-08-21T09:49:00;7.10;;;2.83;;
59052;SDS011;44843;44.728;10.396;2022-08-21T09:51:31;14.90;;;2.60;;
59052;SDS011;44843;44.728;10.396;2022-08-21T09:55:02;4.65;;;3.42;;
59052;SDS011;44843;44.728;10.396;2022-08-21T09:57:48;4.78;;;3.40;;
59052;SDS011;44843;44.728;10.396;2022-08-21T10:02:55;5.88;;;3.10;;
59052;SDS011;44843;44.728;10.396;2022-08-21T10:05:33;6.72;;;4.32;;
59052;SDS011;44843;44.728;10.396;2022-08-21T10:07:59;11.00;;;3.63;;
59052;SDS011;44843;44.728;10.396;2022-08-21T10:10:26;8.32;;;2.88;;
59052;SDS011;44843;44.728;10.396;2022-08-21T10:21:03;3.83;;;2.85;;
59052;SDS011;44843;44.728;10.396;2022-08-21T10:24:05;2.92;;;2.15;;
59052;SDS011;44843;44.728;10.396;2022-08-21T10:40:26;2.42;;;1.90;;
59052;SDS011;44843;44.728;10.396;2022-08-21T10:43:10;3.97;;;2.47;;
59052;SDS011;44843;44.728;10.396;2022-08-21T10:51:35;9.07;;;2.30;;
59052;SDS011;44843;44.728;10.396;2022-08-21T10:54:15;3.38;;;2.00;;
59052;SDS011;44843;44.728;10.396;2022-08-21T10:56:47;3.05;;;2.05;;
59052;SDS011;44843;44.728;10.396;2022-08-21T10:59:26;2.22;;;2.03;;
59052;SDS011;44843;44.728;10.396;2022-08-21T11:02:13;2.47;;;2.00;;
59052;SDS011;44843;44.728;10.396;2022-08-21T11:05:06;4.45;;;2.10;;
59052;SDS011;44843;44.728;10.396;2022-08-21T11:07:39;6.05;;;2.20;;
59052;SDS011;44843;44.728;10.396;2022-08-21T11:13:15;4.07;;;2.10;;
59052;SDS011;44843;44.728;10.396;2022-08-21T11:18:38;2.45;;;2.10;;
59052;SDS011;44843;44.728;10.396;2022-08-21T11:23:54;4.35;;;2.63;;
59052;SDS011;44843;44.728;10.396;2022-08-21T11:26:35;2.90;;;2.40;;
59052;SDS011;44843;44.728;10.396;2022-08-21T11:32:08;2.17;;;1.80;;
59052;SDS011;44843;44.728;10.396;2022-08-21T11:37:31;4.53;;;2.67;;
59052;SDS011;44843;44.728;10.396;2022-08-21T11:48:32;3.40;;;2.10;;
59052;SDS011;44843;44.728;10.396;2022-08-21T11:51:12;2.38;;;2.10;;
59052;SDS011;44843;44.728;10.396;2022-08-21T11:53:52;3.17;;;2.15;;
59052;SDS011;44843;44.728;10.396;2022-08-21T11:56:32;2.65;;;1.90;;
59052;SDS011;44843;44.728;10.396;2022-08-21T11:59:03;2.03;;;1.80;;
59052;SDS011;44843;44.728;10.396;2022-08-21T12:01:33;4.22;;;2.30;;
59052;SDS011;44843;44.728;10.396;2022-08-21T12:04:04;2.17;;;1.83;;
59052;SDS011;44843;44.728;10.396;2022-08-21T12:06:37;2.13;;;1.92;;
59052;SDS011;44843;44.728;10.396;2022-08-21T12:09:06;4.10;;;2.20;;
59052;SDS011;44843;44.728;10.396;2022-08-21T12:12:00;3.03;;;2.05;;
59052;SDS011;44843;44.728;10.396;2022-08-21T12:17:06;2.83;;;2.15;;
59052;SDS011;44843;44.728;10.396;2022-08-21T12:19:33;3.13;;;2.20;;
59052;SDS011;44843;44.728;10.396;2022-08-21T12:29:46;2.45;;;2.25;;
59052;SDS011;44843;44.728;10.396;2022-08-21T12:40:13;3.22;;;2.25;;
59052;SDS011;44843;44.728;10.396;2022-08-21T12:42:43;4.68;;;1.92;;
59052;SDS011;44843;44.728;10.396;2022-08-21T12:45:17;3.20;;;1.90;;
59052;SDS011;44843;44.728;10.396;2022-08-21T12:47:57;4.25;;;1.65;;
59052;SDS011;44843;44.728;10.396;2022-08-21T12:50:48;5.40;;;2.17;;
59052;SDS011;44843;44.728;10.396;2022-08-21T12:56:10;3.05;;;2.00;;
59052;SDS011;44843;44.728;10.396;2022-08-21T12:58:45;2.95;;;2.20;;
59052;SDS011;44843;44.728;10.396;2022-08-21T13:03:49;6.03;;;2.10;;
59052;SDS011;44843;44.728;10.396;2022-08-21T13:06:18;3.25;;;2.00;;
59052;SDS011;44843;44.728;10.396;2022-08-21T13:08:46;2.05;;;1.88;;
59052;SDS011;44843;44.728;10.396;2022-08-21T13:11:18;2.50;;;1.30;;
59052;SDS011;44843;44.728;10.396;2022-08-21T13:13:50;2.10;;;1.90;;
59052;SDS011;44843;44.728;10.396;2022-08-21T13:16:22;4.40;;;1.83;;
59052;SDS011;44843;44.728;10.396;2022-08-21T13:18:57;2.85;;;1.90;;
59052;SDS011;44843;44.728;10.396;2022-08-21T13:21:29;2.63;;;1.67;;
59052;SDS011;44843;44.728;10.396;2022-08-21T13:26:54;3.28;;;1.80;;
59052;SDS011;44843;44.728;10.396;2022-08-21T13:29:21;2.95;;;1.83;;
59052;SDS011;44843;44.728;10.396;2022-08-21T13:31:53;3.67;;;2.00;;
59052;SDS011;44843;44.728;10.396;2022-08-21T13:34:25;1.63;;;1.52;;
59052;SDS011;44843;44.728;10.396;2022-08-21T13:36:58;2.95;;;1.75;;
59052;SDS011;44843;44.728;10.396;2022-08-21T13:39:26;1.58;;;1.48;;
59052;SDS011;44843;44.728;10.396;2022-08-21T13:41:54;1.90;;;1.63;;
59052;SDS011;44843;44.728;10.396;2022-08-21T13:44:23;3.00;;;1.90;;
59052;SDS011;44843;44.728;10.396;2022-08-21T13:46:59;2.08;;;1.70;;
59052;SDS011;44843;44.728;10.396;2022-08-21T13:49:30;2.78;;;1.55;;
59052;SDS011;44843;44.728;10.396;2022-08-21T13:52:24;4.00;;;1.80;;
59052;SDS011;44843;44.728;10.396;2022-08-21T13:57:28;1.90;;;1.60;;
59052;SDS011;44843;44.728;10.396;2022-08-21T14:02:41;1.58;;;1.48;;
59052;SDS011;44843;44.728;10.396;2022-08-21T14:05:14;1.88;;;1.77;;
59052;SDS011;44843;44.728;10.396;2022-08-21T14:08:42;4.50;;;1.50;;
59052;SDS011;44843;44.728;10.396;2022-08-21T14:10:51;2.58;;;1.60;;
59052;SDS011;44843;44.728;10.396;2022-08-21T14:15:58;2.97;;;1.50;;
59052;SDS011;44843;44.728;10.396;2022-08-21T14:18:26;2.83;;;1.80;;
59052;SDS011;44843;44.728;10.396;2022-08-21T14:20:57;1.83;;;1.65;;
59052;SDS011;44843;44.728;10.396;2022-08-21T14:23:30;3.10;;;1.38;;
59052;SDS011;44843;44.728;10.396;2022-08-21T14:25:58;2.70;;;1.40;;
59052;SDS011;44843;44.728;10.396;2022-08-21T14:28:30;1.67;;;1.58;;
59052;SDS011;44843;44.728;10.396;2022-08-21T14:30:58;3.08;;;1.58;;
59052;SDS011;44843;44.728;10.396;2022-08-21T14:33:37;1.58;;;1.48;;
59052;SDS011;44843;44.728;10.396;2022-08-21T14:36:02;2.22;;;1.50;;
59052;SDS011;44843;44.728;10.396;2022-08-21T14:38:28;2.10;;;1.58;;
59052;SDS011;44843;44.728;10.396;2022-08-21T14:40:55;1.58;;;1.45;;
59052;SDS011;44843;44.728;10.396;2022-08-21T14:43:24;2.22;;;1.58;;
59052;SDS011;44843;44.728;10.396;2022-08-21T14:45:51;1.85;;;1.65;;
59052;SDS011;44843;44.728;10.396;2022-08-21T14:48:16;2.75;;;1.52;;
59052;SDS011;44843;44.728;10.396;2022-08-21T14:50:42;1.40;;;1.20;;
59052;SDS011;44843;44.728;10.396;2022-08-21T14:53:07;2.03;;;1.38;;
59052;SDS011;44843;44.728;10.396;2022-08-21T14:55:33;1.50;;;1.40;;
59052;SDS011;44843;44.728;10.396;2022-08-21T14:58:19;1.70;;;1.60;;
59052;SDS011;44843;44.728;10.396;2022-08-21T15:00:45;1.58;;;1.40;;
59052;SDS011;44843;44.728;10.396;2022-08-21T15:03:10;1.70;;;1.60;;
59052;SDS011;44843;44.728;10.396;2022-08-21T15:05:36;2.15;;;1.75;;
59052;SDS011;44843;44.728;10.396;2022-08-21T15:08:01;1.58;;;1.48;;
59052;SDS011;44843;44.728;10.396;2022-08-21T15:10:27;2.13;;;1.83;;
59052;SDS011;44843;44.728;10.396;2022-08-21T15:12:55;2.83;;;1.83;;
59052;SDS011;44843;44.728;10.396;2022-08-21T15:15:21;2.65;;;1.70;;
59052;SDS011;44843;44.728;10.396;2022-08-21T15:17:46;2.42;;;1.40;;
59052;SDS011;44843;44.728;10.396;2022-08-21T15:20:11;2.67;;;1.70;;
59052;SDS011;44843;44.728;10.396;2022-08-21T15:22:37;2.08;;;1.40;;
59052;SDS011;44843;44.728;10.396;2022-08-21T15:25:03;1.80;;;1.60;;
59052;SDS011;44843;44.728;10.396;2022-08-21T15:27:28;1.67;;;1.50;;
59052;SDS011;44843;44.728;10.396;2022-08-21T15:29:54;2.63;;;1.60;;
59052;SDS011;44843;44.728;10.396;2022-08-21T15:34:47;1.60;;;1.50;;
59052;SDS011;44843;44.728;10.396;2022-08-21T15:37:13;2.03;;;1.60;;
59052;SDS011;44843;44.728;10.396;2022-08-21T15:39:39;1.60;;;1.50;;
59052;SDS011;44843;44.728;10.396;2022-08-21T15:42:05;1.70;;;1.58;;
59052;SDS011;44843;44.728;10.396;2022-08-21T15:44:30;1.42;;;1.33;;
59052;SDS011;44843;44.728;10.396;2022-08-21T15:46:56;1.67;;;1.20;;
59052;SDS011;44843;44.728;10.396;2022-08-21T15:49:23;2.40;;;1.67;;
59052;SDS011;44843;44.728;10.396;2022-08-21T15:51:49;2.63;;;1.73;;
59052;SDS011;44843;44.728;10.396;2022-08-21T15:54:14;1.63;;;1.52;;
59052;SDS011;44843;44.728;10.396;2022-08-21T15:56:40;1.60;;;1.50;;
59052;SDS011;44843;44.728;10.396;2022-08-21T15:59:13;2.50;;;1.63;;
59052;SDS011;44843;44.728;10.396;2022-08-21T16:01:43;2.55;;;1.52;;
59052;SDS011;44843;44.728;10.396;2022-08-21T16:04:09;2.65;;;1.60;;
59052;SDS011;44843;44.728;10.396;2022-08-21T16:06:36;4.43;;;1.48;;
59052;SDS011;44843;44.728;10.396;2022-08-21T16:09:01;1.70;;;1.50;;
59052;SDS011;44843;44.728;10.396;2022-08-21T16:11:27;2.03;;;1.60;;
59052;SDS011;44843;44.728;10.396;2022-08-21T16:13:53;1.88;;;1.33;;
59052;SDS011;44843;44.728;10.396;2022-08-21T16:16:20;1.88;;;1.27;;
59052;SDS011;44843;44.728;10.396;2022-08-21T16:18:48;1.58;;;1.48;;
59052;SDS011;44843;44.728;10.396;2022-08-21T16:21:15;3.15;;;1.63;;
59052;SDS011;44843;44.728;10.396;2022-08-21T16:23:41;2.42;;;1.80;;
59052;SDS011;44843;44.728;10.396;2022-08-21T16:26:07;2.25;;;1.65;;
59052;SDS011;44843;44.728;10.396;2022-08-21T16:28:36;1.58;;;1.48;;
59052;SDS011;44843;44.728;10.396;2022-08-21T16:31:03;1.73;;;1.48;;
59052;SDS011;44843;44.728;10.396;2022-08-21T16:33:31;1.50;;;1.40;;
59052;SDS011;44843;44.728;10.396;2022-08-21T16:35:58;2.15;;;1.40;;
59052;SDS011;44843;44.728;10.396;2022-08-21T16:38:26;2.35;;;1.42;;
59052;SDS011;44843;44.728;10.396;2022-08-21T16:40:52;1.65;;;1.55;;
59052;SDS011;44843;44.728;10.396;2022-08-21T16:43:18;2.22;;;2.03;;
59052;SDS011;44843;44.728;10.396;2022-08-21T16:45:49;1.67;;;1.42;;
59052;SDS011;44843;44.728;10.396;2022-08-21T16:48:16;4.90;;;1.80;;
59052;SDS011;44843;44.728;10.396;2022-08-21T16:50:41;2.67;;;1.58;;
59052;SDS011;44843;44.728;10.396;2022-08-21T16:53:06;1.90;;;1.60;;
59052;SDS011;44843;44.728;10.396;2022-08-21T16:55:35;5.18;;;1.58;;
59052;SDS011;44843;44.728;10.396;2022-08-21T16:58:02;2.95;;;1.73;;
59052;SDS011;44843;44.728;10.396;2022-08-21T17:00:33;4.00;;;2.25;;
59052;SDS011;44843;44.728;10.396;2022-08-21T17:02:59;5.07;;;2.75;;
59052;SDS011;44843;44.728;10.396;2022-08-21T17:05:24;2.00;;;1.80;;
59052;SDS011;44843;44.728;10.396;2022-08-21T17:07:50;3.63;;;1.55;;
59052;SDS011;44843;44.728;10.396;2022-08-21T17:10:16;3.83;;;1.73;;
59052;SDS011;44843;44.728;10.396;2022-08-21T17:12:43;2.78;;;1.85;;
59052;SDS011;44843;44.728;10.396;2022-08-21T17:15:37;2.17;;;1.33;;
59052;SDS011;44843;44.728;10.396;2022-08-21T17:18:03;1.90;;;1.67;;
59052;SDS011;44843;44.728;10.396;2022-08-21T17:20:32;2.28;;;1.67;;
59052;SDS011;44843;44.728;10.396;2022-08-21T17:22:57;3.92;;;1.50;;
59052;SDS011;44843;44.728;10.396;2022-08-21T17:25:23;2.25;;;1.80;;
59052;SDS011;44843;44.728;10.396;2022-08-21T17:27:48;1.73;;;1.63;;
59052;SDS011;44843;44.728;10.396;2022-08-21T17:30:15;2.58;;;1.70;;
59052;SDS011;44843;44.728;10.396;2022-08-21T17:32:42;6.07;;;1.85;;
59052;SDS011;44843;44.728;10.396;2022-08-21T17:35:09;2.40;;;1.80;;
59052;SDS011;44843;44.728;10.396;2022-08-21T17:37:36;4.97;;;3.42;;
59052;SDS011;44843;44.728;10.396;2022-08-21T17:40:03;5.88;;;3.92;;
59052;SDS011;44843;44.728;10.396;2022-08-21T17:42:31;2.70;;;2.28;;
59052;SDS011;44843;44.728;10.396;2022-08-21T17:44:56;19.80;;;13.80;;
59052;SDS011;44843;44.728;10.396;2022-08-21T17:47:22;24.55;;;18.00;;
59052;SDS011;44843;44.728;10.396;2022-08-21T17:49:49;39.15;;;29.13;;
59052;SDS011;44843;44.728;10.396;2022-08-21T17:52:14;37.38;;;29.77;;
59052;SDS011;44843;44.728;10.396;2022-08-21T17:54:40;28.75;;;23.95;;
59052;SDS011;44843;44.728;10.396;2022-08-21T17:57:05;35.33;;;28.67;;
59052;SDS011;44843;44.728;10.396;2022-08-21T17:59:32;49.92;;;35.75;;
59052;SDS011;44843;44.728;10.396;2022-08-21T18:01:58;97.60;;;70.30;;
59052;SDS011;44843;44.728;10.396;2022-08-21T18:04:27;93.38;;;63.03;;
59052;SDS011;44843;44.728;10.396;2022-08-21T18:06:54;73.25;;;51.88;;
59052;SDS011;44843;44.728;10.396;2022-08-21T18:09:20;147.68;;;114.03;;
59052;SDS011;44843;44.728;10.396;2022-08-21T18:11:47;80.18;;;61.72;;
59052;SDS011;44843;44.728;10.396;2022-08-21T18:14:13;15.80;;;10.68;;
59052;SDS011;44843;44.728;10.396;2022-08-21T18:16:40;13.50;;;9.25;;
59052;SDS011;44843;44.728;10.396;2022-08-21T18:19:09;8.23;;;4.15;;
59052;SDS011;44843;44.728;10.396;2022-08-21T18:21:39;10.38;;;4.30;;
59052;SDS011;44843;44.728;10.396;2022-08-21T18:24:05;8.15;;;5.13;;
59052;SDS011;44843;44.728;10.396;2022-08-21T18:26:34;22.92;;;13.32;;
59052;SDS011;44843;44.728;10.396;2022-08-21T18:29:03;20.20;;;12.32;;
59052;SDS011;44843;44.728;10.396;2022-08-21T18:31:30;5.97;;;4.97;;
59052;SDS011;44843;44.728;10.396;2022-08-21T18:33:57;7.28;;;4.22;;
59052;SDS011;44843;44.728;10.396;2022-08-21T18:36:26;5.20;;;3.63;;
59052;SDS011;44843;44.728;10.396;2022-08-21T18:38:52;4.35;;;3.22;;
59052;SDS011;44843;44.728;10.396;2022-08-21T18:41:19;8.75;;;3.97;;
59052;SDS011;44843;44.728;10.396;2022-08-21T18:43:46;9.95;;;6.55;;
59052;SDS011;44843;44.728;10.396;2022-08-21T18:46:12;11.57;;;7.57;;
59052;SDS011;44843;44.728;10.396;2022-08-21T18:48:37;11.10;;;7.22;;
59052;SDS011;44843;44.728;10.396;2022-08-21T18:51:04;10.68;;;7.57;;
59052;SDS011;44843;44.728;10.396;2022-08-21T18:53:29;9.88;;;7.03;;
59052;SDS011;44843;44.728;10.396;2022-08-21T18:55:55;9.82;;;6.60;;
59052;SDS011;44843;44.728;10.396;2022-08-21T18:58:21;8.38;;;6.57;;
59052;SDS011;44843;44.728;10.396;2022-08-21T19:00:47;8.23;;;5.35;;
59052;SDS011;44843;44.728;10.396;2022-08-21T19:03:15;5.00;;;3.22;;
59052;SDS011;44843;44.728;10.396;2022-08-21T19:05:42;5.88;;;3.35;;
59052;SDS011;44843;44.728;10.396;2022-08-21T19:08:12;7.05;;;5.22;;
59052;SDS011;44843;44.728;10.396;2022-08-21T19:10:40;5.15;;;4.18;;
59052;SDS011;44843;44.728;10.396;2022-08-21T19:13:09;8.00;;;5.20;;
59052;SDS011;44843;44.728;10.396;2022-08-21T19:15:36;8.30;;;5.80;;
59052;SDS011;44843;44.728;10.396;2022-08-21T19:18:05;5.25;;;4.15;;
59052;SDS011;44843;44.728;10.396;2022-08-21T19:20:35;8.00;;;4.43;;
59052;SDS011;44843;44.728;10.396;2022-08-21T19:23:01;5.13;;;4.38;;
59052;SDS011;44843;44.728;10.396;2022-08-21T19:25:28;6.45;;;4.25;;
59052;SDS011;44843;44.728;10.396;2022-08-21T19:27:54;9.02;;;4.18;;
59052;SDS011;44843;44.728;10.396;2022-08-21T19:30:20;5.70;;;4.30;;
59052;SDS011;44843;44.728;10.396;2022-08-21T19:32:45;5.47;;;3.83;;
59052;SDS011;44843;44.728;10.396;2022-08-21T19:35:13;4.45;;;3.95;;
59052;SDS011;44843;44.728;10.396;2022-08-21T19:37:41;4.28;;;3.85;;
59052;SDS011;44843;44.728;10.396;2022-08-21T19:40:07;6.32;;;4.18;;
59052;SDS011;44843;44.728;10.396;2022-08-21T19:42:33;8.10;;;4.15;;
59052;SDS011;44843;44.728;10.396;2022-08-21T19:44:59;5.53;;;4.05;;
59052;SDS011;44843;44.728;10.396;2022-08-21T19:47:26;6.30;;;4.25;;
59052;SDS011;44843;44.728;10.396;2022-08-21T19:49:53;5.72;;;3.58;;
59052;SDS011;44843;44.728;10.396;2022-08-21T19:52:22;4.95;;;3.63;;
59052;SDS011;44843;44.728;10.396;2022-08-21T19:54:47;3.88;;;3.47;;
59052;SDS011;44843;44.728;10.396;2022-08-21T19:57:13;5.72;;;3.10;;
59052;SDS011;44843;44.728;10.396;2022-08-21T19:59:39;3.92;;;3.13;;
59052;SDS011;44843;44.728;10.396;2022-08-21T20:02:05;4.45;;;3.22;;
59052;SDS011;44843;44.728;10.396;2022-08-21T20:04:32;4.43;;;3.15;;
59052;SDS011;44843;44.728;10.396;2022-08-21T20:06:58;5.85;;;3.10;;
59052;SDS011;44843;44.728;10.396;2022-08-21T20:09:24;3.55;;;2.90;;
59052;SDS011;44843;44.728;10.396;2022-08-21T20:11:51;4.95;;;2.50;;
59052;SDS011;44843;44.728;10.396;2022-08-21T20:14:19;3.53;;;2.67;;
59052;SDS011;44843;44.728;10.396;2022-08-21T20:16:47;4.55;;;2.90;;
59052;SDS011;44843;44.728;10.396;2022-08-21T20:19:14;4.78;;;2.38;;
59052;SDS011;44843;44.728;10.396;2022-08-21T20:21:39;7.13;;;2.58;;
59052;SDS011;44843;44.728;10.396;2022-08-21T20:24:05;5.03;;;2.55;;
59052;SDS011;44843;44.728;10.396;2022-08-21T20:26:31;3.60;;;2.60;;
59052;SDS011;44843;44.728;10.396;2022-08-21T20:28:57;6.35;;;2.25;;
59052;SDS011;44843;44.728;10.396;2022-08-21T20:31:22;4.10;;;2.72;;
59052;SDS011;44843;44.728;10.396;2022-08-21T20:33:48;3.40;;;2.20;;
59052;SDS011;44843;44.728;10.396;2022-08-21T20:36:15;4.00;;;2.53;;
59052;SDS011;44843;44.728;10.396;2022-08-21T20:38:41;2.63;;;2.42;;
59052;SDS011;44843;44.728;10.396;2022-08-21T20:41:06;5.05;;;2.90;;
59052;SDS011;44843;44.728;10.396;2022-08-21T20:43:35;3.70;;;2.92;;
59052;SDS011;44843;44.728;10.396;2022-08-21T20:46:02;4.32;;;2.80;;
59052;SDS011;44843;44.728;10.396;2022-08-21T20:48:33;2.70;;;2.50;;
59052;SDS011;44843;44.728;10.396;2022-08-21T20:53:47;3.15;;;2.85;;
59052;SDS011;44843;44.728;10.396;2022-08-21T21:05:04;6.32;;;3.47;;
59052;SDS011;44843;44.728;10.396;2022-08-21T21:07:37;5.50;;;3.40;;
59052;SDS011;44843;44.728;10.396;2022-08-21T21:10:08;3.63;;;3.00;;
59052;SDS011;44843;44.728;10.396;2022-08-21T21:12:42;4.05;;;2.97;;
59052;SDS011;44843;44.728;10.396;2022-08-21T21:15:16;3.85;;;2.95;;
59052;SDS011;44843;44.728;10.396;2022-08-21T21:17:49;6.05;;;3.95;;
59052;SDS011;44843;44.728;10.396;2022-08-21T21:20:26;3.25;;;2.95;;
59052;SDS011;44843;44.728;10.396;2022-08-21T21:23:24;3.45;;;3.15;;
59052;SDS011;44843;44.728;10.396;2022-08-21T21:25:57;3.83;;;2.90;;
59052;SDS011;44843;44.728;10.396;2022-08-21T21:31:12;5.40;;;3.15;;
59052;SDS011;44843;44.728;10.396;2022-08-21T21:33:38;3.65;;;2.70;;
59052;SDS011;44843;44.728;10.396;2022-08-21T21:36:11;3.00;;;2.70;;
59052;SDS011;44843;44.728;10.396;2022-08-21T21:55:13;2.93;;;2.63;;
59052;SDS011;44843;44.728;10.396;2022-08-21T22:01:09;3.13;;;2.83;;
59052;SDS011;44843;44.728;10.396;2022-08-21T22:03:59;3.15;;;2.80;;
59052;SDS011;44843;44.728;10.396;2022-08-21T22:09:14;3.65;;;2.67;;
59052;SDS011;44843;44.728;10.396;2022-08-21T22:14:39;9.48;;;2.60;;
59052;SDS011;44843;44.728;10.396;2022-08-21T22:17:08;4.05;;;2.42;;
59052;SDS011;44843;44.728;10.396;2022-08-21T22:19:44;6.38;;;3.08;;
59052;SDS011;44843;44.728;10.396;2022-08-21T22:24:40;4.00;;;2.55;;
59052;SDS011;44843;44.728;10.396;2022-08-21T22:27:12;8.27;;;3.08;;
59052;SDS011;44843;44.728;10.396;2022-08-21T22:29:43;4.32;;;2.92;;
59052;SDS011;44843;44.728;10.396;2022-08-21T22:32:29;3.80;;;2.67;;
59052;SDS011;44843;44.728;10.396;2022-08-21T22:35:18;5.00;;;2.47;;
59052;SDS011;44843;44.728;10.396;2022-08-21T22:37:52;2.92;;;2.72;;
59052;SDS011;44843;44.728;10.396;2022-08-21T22:43:03;3.10;;;2.70;;
59052;SDS011;44843;44.728;10.396;2022-08-21T22:45:50;3.47;;;2.88;;
59052;SDS011;44843;44.728;10.396;2022-08-21T22:48:22;3.72;;;2.35;;
59052;SDS011;44843;44.728;10.396;2022-08-21T22:50:56;2.58;;;2.13;;
59052;SDS011;44843;44.728;10.396;2022-08-21T22:53:28;2.60;;;2.40;;
59052;SDS011;44843;44.728;10.396;2022-08-21T22:55:58;3.13;;;2.67;;
59052;SDS011;44843;44.728;10.396;2022-08-21T22:58:27;3.75;;;2.75;;
59052;SDS011;44843;44.728;10.396;2022-08-21T23:03:48;5.25;;;2.60;;
59052;SDS011;44843;44.728;10.396;2022-08-21T23:09:16;2.33;;;2.10;;
59052;SDS011;44843;44.728;10.396;2022-08-21T23:11:53;5.20;;;2.88;;
59052;SDS011;44843;44.728;10.396;2022-08-21T23:14:20;5.60;;;3.15;;
59052;SDS011;44843;44.728;10.396;2022-08-21T23:17:02;3.33;;;2.55;;
59052;SDS011;44843;44.728;10.396;2022-08-21T23:22:03;4.05;;;2.85;;
59052;SDS011;44843;44.728;10.396;2022-08-21T23:30:06;4.25;;;3.00;;
59052;SDS011;44843;44.728;10.396;2022-08-21T23:35:15;4.95;;;3.15;;
59052;SDS011;44843;44.728;10.396;2022-08-21T23:38:11;5.07;;;2.70;;
59052;SDS011;44843;44.728;10.396;2022-08-21T23:41:05;3.33;;;2.53;;
59052;SDS011;44843;44.728;10.396;2022-08-21T23:43:54;4.10;;;2.72;;
59052;SDS011;44843;44.728;10.396;2022-08-21T23:57:44;3.15;;;2.50;;
